sensor_id;sensor_type;location;lat;lon;timestamp;pressure;altitude;pressure_sealevel;temperature;humidity
63097;BME280;49185;42.320;23.198;2023-09-12T00:02:06;95032.44;;;10.80;87.07
63097;BME280;49185;42.320;23.198;2023-09-12T00:04:32;95035.41;;;10.84;86.59
63097;BME280;49185;42.320;23.198;2023-09-12T00:06:57;95033.94;;;10.93;85.30
63097;BME280;49185;42.320;23.198;2023-09-12T00:09:23;95032.97;;;10.99;84.88
63097;BME280;49185;42.320;23.198;2023-09-12T00:11:48;95034.66;;;11.06;84.20
63097;BME280;49185;42.320;23.198;2023-09-12T00:14:17;95040.31;;;11.09;84.75
63097;BME280;49185;42.320;23.198;2023-09-12T00:16:43;95029.41;;;11.11;85.05
63097;BME280;49185;42.320;23.198;2023-09-12T00:19:08;95037.16;;;11.12;85.19
63097;BME280;49185;42.320;23.198;2023-09-12T00:21:33;95035.13;;;11.19;84.29
63097;BME280;49185;42.320;23.198;2023-09-12T00:23:59;95041.44;;;11.13;84.48
63097;BME280;49185;42.320;23.198;2023-09-12T00:26:24;95040.63;;;11.13;84.34
63097;BME280;49185;42.320;23.198;2023-09-12T00:28:50;95042.41;;;11.07;84.94
63097;BME280;49185;42.320;23.198;2023-09-12T00:31:15;95044.03;;;10.91;85.67
63097;BME280;49185;42.320;23.198;2023-09-12T00:33:41;95045.50;;;10.82;85.42
63097;BME280;49185;42.320;23.198;2023-09-12T00:36:06;95048.31;;;10.75;85.63
63097;BME280;49185;42.320;23.198;2023-09-12T00:38:32;95050.31;;;10.68;85.83
63097;BME280;49185;42.320;23.198;2023-09-12T00:40:57;95057.47;;;10.68;85.49
63097;BME280;49185;42.320;23.198;2023-09-12T00:43:22;95047.00;;;10.61;86.01
63097;BME280;49185;42.320;23.198;2023-09-12T00:45:48;95054.91;;;10.56;87.12
63097;BME280;49185;42.320;23.198;2023-09-12T00:48:14;95052.94;;;10.51;86.99
63097;BME280;49185;42.320;23.198;2023-09-12T00:50:42;95051.34;;;10.50;87.40
63097;BME280;49185;42.320;23.198;2023-09-12T00:53:08;95056.91;;;10.49;87.62
63097;BME280;49185;42.320;23.198;2023-09-12T00:55:36;95049.16;;;10.47;87.00
63097;BME280;49185;42.320;23.198;2023-09-12T00:58:02;95048.03;;;10.43;87.19
63097;BME280;49185;42.320;23.198;2023-09-12T01:00:28;95051.16;;;10.40;87.97
63097;BME280;49185;42.320;23.198;2023-09-12T01:02:54;95049.53;;;10.39;87.44
63097;BME280;49185;42.320;23.198;2023-09-12T01:05:20;95044.78;;;10.41;87.57
63097;BME280;49185;42.320;23.198;2023-09-12T01:07:46;95046.66;;;10.40;87.79
63097;BME280;49185;42.320;23.198;2023-09-12T01:10:12;95047.84;;;10.33;88.36
63097;BME280;49185;42.320;23.198;2023-09-12T01:12:38;95053.03;;;10.27;89.40
63097;BME280;49185;42.320;23.198;2023-09-12T01:15:04;95053.97;;;10.21;89.46
63097;BME280;49185;42.320;23.198;2023-09-12T01:17:30;95059.81;;;10.18;89.82
63097;BME280;49185;42.320;23.198;2023-09-12T01:19:55;95060.25;;;10.15;90.27
63097;BME280;49185;42.320;23.198;2023-09-12T01:27:41;95062.63;;;10.00;90.88
63097;BME280;49185;42.320;23.198;2023-09-12T01:30:07;95064.25;;;10.01;91.26
63097;BME280;49185;42.320;23.198;2023-09-12T01:32:34;95065.03;;;10.01;91.18
63097;BME280;49185;42.320;23.198;2023-09-12T01:35:01;95068.66;;;9.95;92.37
63097;BME280;49185;42.320;23.198;2023-09-12T01:37:26;95074.69;;;9.91;92.28
63097;BME280;49185;42.320;23.198;2023-09-12T01:39:52;95074.81;;;9.84;94.01
63097;BME280;49185;42.320;23.198;2023-09-12T01:42:21;95067.78;;;9.78;93.96
63097;BME280;49185;42.320;23.198;2023-09-12T01:44:50;95070.44;;;9.78;93.90
63097;BME280;49185;42.320;23.198;2023-09-12T01:47:20;95061.84;;;9.87;93.37
63097;BME280;49185;42.320;23.198;2023-09-12T01:49:49;95067.66;;;9.84;93.63
63097;BME280;49185;42.320;23.198;2023-09-12T01:52:15;95067.78;;;9.78;94.51
63097;BME280;49185;42.320;23.198;2023-09-12T01:54:42;95063.50;;;9.65;94.56
63097;BME280;49185;42.320;23.198;2023-09-12T01:57:08;95060.19;;;9.58;95.48
63097;BME280;49185;42.320;23.198;2023-09-12T01:59:34;95062.75;;;9.53;95.06
63097;BME280;49185;42.320;23.198;2023-09-12T02:01:59;95062.16;;;9.50;95.17
63097;BME280;49185;42.320;23.198;2023-09-12T02:04:25;95063.31;;;9.55;95.14
63097;BME280;49185;42.320;23.198;2023-09-12T02:06:50;95065.25;;;9.59;95.23
63097;BME280;49185;42.320;23.198;2023-09-12T02:09:16;95063.88;;;9.57;95.21
63097;BME280;49185;42.320;23.198;2023-09-12T02:11:41;95069.88;;;9.52;95.12
63097;BME280;49185;42.320;23.198;2023-09-12T02:14:06;95069.56;;;9.48;94.83
63097;BME280;49185;42.320;23.198;2023-09-12T02:16:32;95071.06;;;9.44;95.14
63097;BME280;49185;42.320;23.198;2023-09-12T02:18:57;95073.38;;;9.41;94.88
63097;BME280;49185;42.320;23.198;2023-09-12T02:21:23;95068.53;;;9.38;95.18
63097;BME280;49185;42.320;23.198;2023-09-12T02:23:48;95079.59;;;9.35;96.11
63097;BME280;49185;42.320;23.198;2023-09-12T02:26:14;95075.91;;;9.36;95.40
63097;BME280;49185;42.320;23.198;2023-09-12T02:28:39;95075.25;;;9.40;95.36
63097;BME280;49185;42.320;23.198;2023-09-12T02:31:10;95078.91;;;9.39;95.67
63097;BME280;49185;42.320;23.198;2023-09-12T02:33:36;95081.47;;;9.34;96.13
63097;BME280;49185;42.320;23.198;2023-09-12T02:36:02;95077.31;;;9.26;96.44
63097;BME280;49185;42.320;23.198;2023-09-12T02:38:27;95083.88;;;9.24;96.80
63097;BME280;49185;42.320;23.198;2023-09-12T02:40:53;95082.41;;;9.28;97.03
63097;BME280;49185;42.320;23.198;2023-09-12T02:43:18;95086.06;;;9.27;97.33
63097;BME280;49185;42.320;23.198;2023-09-12T02:45:43;95088.03;;;9.20;97.27
63097;BME280;49185;42.320;23.198;2023-09-12T02:48:09;95091.84;;;9.12;97.57
63097;BME280;49185;42.320;23.198;2023-09-12T02:50:34;95095.41;;;9.06;97.42
63097;BME280;49185;42.320;23.198;2023-09-12T02:53:00;95094.16;;;8.97;97.89
63097;BME280;49185;42.320;23.198;2023-09-12T02:55:25;95096.22;;;8.95;97.99
63097;BME280;49185;42.320;23.198;2023-09-12T02:57:50;95105.31;;;8.87;98.18
63097;BME280;49185;42.320;23.198;2023-09-12T03:00:16;95097.34;;;8.75;98.49
63097;BME280;49185;42.320;23.198;2023-09-12T03:02:41;95104.72;;;8.73;98.70
63097;BME280;49185;42.320;23.198;2023-09-12T03:05:07;95100.66;;;8.70;98.62
63097;BME280;49185;42.320;23.198;2023-09-12T03:07:33;95097.66;;;8.67;98.81
63097;BME280;49185;42.320;23.198;2023-09-12T03:09:58;95102.63;;;8.63;99.08
63097;BME280;49185;42.320;23.198;2023-09-12T03:12:24;95105.94;;;8.59;99.11
63097;BME280;49185;42.320;23.198;2023-09-12T03:14:49;95102.56;;;8.51;98.90
63097;BME280;49185;42.320;23.198;2023-09-12T03:17:14;95099.44;;;8.43;99.08
63097;BME280;49185;42.320;23.198;2023-09-12T03:19:40;95100.75;;;8.33;99.67
63097;BME280;49185;42.320;23.198;2023-09-12T03:22:05;95102.16;;;8.36;99.83
63097;BME280;49185;42.320;23.198;2023-09-12T03:24:31;95106.41;;;8.37;100.00
63097;BME280;49185;42.320;23.198;2023-09-12T03:26:56;95111.00;;;8.30;100.00
63097;BME280;49185;42.320;23.198;2023-09-12T03:29:21;95105.47;;;8.31;100.00
63097;BME280;49185;42.320;23.198;2023-09-12T03:31:47;95110.78;;;8.31;100.00
63097;BME280;49185;42.320;23.198;2023-09-12T03:34:12;95112.63;;;8.31;100.00
63097;BME280;49185;42.320;23.198;2023-09-12T03:36:38;95105.56;;;8.25;100.00
63097;BME280;49185;42.320;23.198;2023-09-12T03:39:03;95113.38;;;8.20;100.00
63097;BME280;49185;42.320;23.198;2023-09-12T03:41:29;95112.34;;;8.21;100.00
63097;BME280;49185;42.320;23.198;2023-09-12T03:43:54;95114.06;;;8.15;100.00
63097;BME280;49185;42.320;23.198;2023-09-12T03:46:20;95118.16;;;8.11;100.00
63097;BME280;49185;42.320;23.198;2023-09-12T03:48:45;95122.66;;;8.10;100.00
63097;BME280;49185;42.320;23.198;2023-09-12T03:51:11;95118.06;;;8.06;100.00
63097;BME280;49185;42.320;23.198;2023-09-12T03:53:36;95120.91;;;8.04;100.00
63097;BME280;49185;42.320;23.198;2023-09-12T03:56:02;95124.66;;;7.96;100.00
63097;BME280;49185;42.320;23.198;2023-09-12T03:58:27;95129.38;;;7.94;100.00
63097;BME280;49185;42.320;23.198;2023-09-12T04:00:53;95126.50;;;7.96;100.00
63097;BME280;49185;42.320;23.198;2023-09-12T04:03:18;95132.38;;;7.98;100.00
63097;BME280;49185;42.320;23.198;2023-09-12T04:05:49;95130.41;;;7.93;100.00
63097;BME280;49185;42.320;23.198;2023-09-12T04:08:15;95136.31;;;7.95;100.00
63097;BME280;49185;42.320;23.198;2023-09-12T04:10:42;95130.09;;;8.02;100.00
63097;BME280;49185;42.320;23.198;2023-09-12T04:13:07;95134.16;;;8.04;100.00
63097;BME280;49185;42.320;23.198;2023-09-12T04:15:33;95131.88;;;8.08;100.00
63097;BME280;49185;42.320;23.198;2023-09-12T04:17:58;95136.34;;;8.07;100.00
63097;BME280;49185;42.320;23.198;2023-09-12T04:20:23;95128.53;;;8.12;100.00
63097;BME280;49185;42.320;23.198;2023-09-12T04:22:49;95134.22;;;8.16;100.00
63097;BME280;49185;42.320;23.198;2023-09-12T04:25:14;95138.28;;;8.18;100.00
63097;BME280;49185;42.320;23.198;2023-09-12T04:27:41;95140.22;;;8.23;100.00
63097;BME280;49185;42.320;23.198;2023-09-12T04:30:07;95141.72;;;8.38;100.00
63097;BME280;49185;42.320;23.198;2023-09-12T04:32:33;95145.69;;;8.47;99.74
63097;BME280;49185;42.320;23.198;2023-09-12T04:34:58;95142.63;;;8.62;98.71
63097;BME280;49185;42.320;23.198;2023-09-12T04:37:24;95142.66;;;8.73;98.41
63097;BME280;49185;42.320;23.198;2023-09-12T04:39:49;95146.81;;;8.81;97.43
63097;BME280;49185;42.320;23.198;2023-09-12T04:42:14;95148.47;;;8.94;96.86
63097;BME280;49185;42.320;23.198;2023-09-12T04:44:40;95146.91;;;9.17;95.52
63097;BME280;49185;42.320;23.198;2023-09-12T04:47:07;95152.69;;;9.37;94.52
63097;BME280;49185;42.320;23.198;2023-09-12T04:49:32;95147.97;;;9.51;93.41
63097;BME280;49185;42.320;23.198;2023-09-12T04:51:58;95149.91;;;9.67;93.25
63097;BME280;49185;42.320;23.198;2023-09-12T04:54:23;95149.66;;;9.81;92.25
63097;BME280;49185;42.320;23.198;2023-09-12T04:56:48;95147.56;;;10.06;90.91
63097;BME280;49185;42.320;23.198;2023-09-12T04:59:14;95141.66;;;10.04;90.23
63097;BME280;49185;42.320;23.198;2023-09-12T05:01:39;95150.75;;;10.20;89.48
63097;BME280;49185;42.320;23.198;2023-09-12T05:04:05;95146.81;;;10.23;89.32
63097;BME280;49185;42.320;23.198;2023-09-12T05:06:30;95150.72;;;10.44;89.50
63097;BME280;49185;42.320;23.198;2023-09-12T05:08:56;95151.16;;;10.53;88.44
63097;BME280;49185;42.320;23.198;2023-09-12T05:11:24;95158.41;;;10.86;87.87
63097;BME280;49185;42.320;23.198;2023-09-12T05:13:50;95145.19;;;11.08;86.57
63097;BME280;49185;42.320;23.198;2023-09-12T05:16:15;95148.75;;;11.48;85.45
63097;BME280;49185;42.320;23.198;2023-09-12T05:18:41;95145.56;;;11.85;83.41
63097;BME280;49185;42.320;23.198;2023-09-12T05:21:06;95142.28;;;12.17;82.24
63097;BME280;49185;42.320;23.198;2023-09-12T05:23:32;95150.81;;;12.41;81.86
63097;BME280;49185;42.320;23.198;2023-09-12T05:25:57;95145.31;;;13.02;79.72
63097;BME280;49185;42.320;23.198;2023-09-12T05:28:23;95144.91;;;13.85;76.42
63097;BME280;49185;42.320;23.198;2023-09-12T05:30:48;95141.72;;;13.93;74.61
63097;BME280;49185;42.320;23.198;2023-09-12T05:33:14;95137.78;;;14.69;72.71
63097;BME280;49185;42.320;23.198;2023-09-12T05:35:39;95141.03;;;14.81;72.16
63097;BME280;49185;42.320;23.198;2023-09-12T05:38:04;95137.28;;;14.77;71.97
63097;BME280;49185;42.320;23.198;2023-09-12T05:40:30;95138.38;;;14.23;74.63
63097;BME280;49185;42.320;23.198;2023-09-12T05:42:55;95137.06;;;15.15;71.96
63097;BME280;49185;42.320;23.198;2023-09-12T05:45:21;95147.25;;;15.28;72.10
63097;BME280;49185;42.320;23.198;2023-09-12T05:47:47;95136.72;;;16.04;69.64
63097;BME280;49185;42.320;23.198;2023-09-12T05:50:12;95144.00;;;16.68;67.99
63097;BME280;49185;42.320;23.198;2023-09-12T05:52:37;95140.63;;;17.02;65.46
63097;BME280;49185;42.320;23.198;2023-09-12T05:55:03;95143.38;;;16.82;65.76
63097;BME280;49185;42.320;23.198;2023-09-12T05:57:29;95142.03;;;16.89;64.97
63097;BME280;49185;42.320;23.198;2023-09-12T05:59:54;95138.47;;;16.99;65.89
63097;BME280;49185;42.320;23.198;2023-09-12T06:02:19;95143.53;;;16.56;66.42
63097;BME280;49185;42.320;23.198;2023-09-12T06:04:45;95143.38;;;17.32;64.80
63097;BME280;49185;42.320;23.198;2023-09-12T06:07:11;95154.00;;;17.13;65.11
63097;BME280;49185;42.320;23.198;2023-09-12T06:09:36;95157.53;;;17.03;66.21
63097;BME280;49185;42.320;23.198;2023-09-12T06:12:02;95154.78;;;17.13;65.78
63097;BME280;49185;42.320;23.198;2023-09-12T06:14:27;95149.13;;;17.83;62.89
63097;BME280;49185;42.320;23.198;2023-09-12T06:16:53;95155.22;;;17.60;63.84
63097;BME280;49185;42.320;23.198;2023-09-12T06:19:18;95158.31;;;17.48;63.35
63097;BME280;49185;42.320;23.198;2023-09-12T06:21:44;95154.63;;;17.68;62.97
63097;BME280;49185;42.320;23.198;2023-09-12T06:24:20;95156.56;;;17.62;62.31
63097;BME280;49185;42.320;23.198;2023-09-12T06:26:45;95160.06;;;17.29;63.88
63097;BME280;49185;42.320;23.198;2023-09-12T06:29:11;95159.69;;;18.04;61.89
63097;BME280;49185;42.320;23.198;2023-09-12T06:31:36;95163.00;;;18.49;60.06
63097;BME280;49185;42.320;23.198;2023-09-12T06:34:02;95158.44;;;18.93;59.92
63097;BME280;49185;42.320;23.198;2023-09-12T06:36:28;95162.31;;;19.58;57.40
63097;BME280;49185;42.320;23.198;2023-09-12T06:38:53;95158.56;;;19.40;56.32
63097;BME280;49185;42.320;23.198;2023-09-12T06:41:19;95163.13;;;19.58;55.54
63097;BME280;49185;42.320;23.198;2023-09-12T06:43:45;95167.47;;;19.92;55.10
63097;BME280;49185;42.320;23.198;2023-09-12T06:46:10;95161.72;;;20.68;53.53
63097;BME280;49185;42.320;23.198;2023-09-12T06:48:36;95161.63;;;21.23;51.84
63097;BME280;49185;42.320;23.198;2023-09-12T06:51:05;95165.16;;;21.10;49.73
63097;BME280;49185;42.320;23.198;2023-09-12T06:53:30;95167.91;;;22.00;49.65
63097;BME280;49185;42.320;23.198;2023-09-12T06:55:56;95167.31;;;21.81;48.64
63097;BME280;49185;42.320;23.198;2023-09-12T06:58:21;95168.34;;;22.25;48.43
63097;BME280;49185;42.320;23.198;2023-09-12T07:00:47;95162.91;;;22.97;44.87
63097;BME280;49185;42.320;23.198;2023-09-12T07:03:12;95161.78;;;24.02;42.88
63097;BME280;49185;42.320;23.198;2023-09-12T07:05:37;95161.00;;;23.67;42.64
63097;BME280;49185;42.320;23.198;2023-09-12T07:08:03;95171.06;;;24.10;41.93
63097;BME280;49185;42.320;23.198;2023-09-12T07:10:29;95165.81;;;23.44;43.49
63097;BME280;49185;42.320;23.198;2023-09-12T07:12:54;95168.59;;;24.26;41.83
63097;BME280;49185;42.320;23.198;2023-09-12T07:15:20;95165.00;;;25.11;39.53
63097;BME280;49185;42.320;23.198;2023-09-12T07:17:45;95170.44;;;24.90;41.15
63097;BME280;49185;42.320;23.198;2023-09-12T07:20:11;95167.97;;;24.97;40.23
63097;BME280;49185;42.320;23.198;2023-09-12T07:22:38;95172.84;;;25.13;39.95
63097;BME280;49185;42.320;23.198;2023-09-12T07:25:03;95171.28;;;25.33;38.82
63097;BME280;49185;42.320;23.198;2023-09-12T07:27:29;95174.47;;;25.35;37.52
63097;BME280;49185;42.320;23.198;2023-09-12T07:29:54;95172.97;;;25.25;38.88
63097;BME280;49185;42.320;23.198;2023-09-12T07:32:20;95173.09;;;24.99;37.46
63097;BME280;49185;42.320;23.198;2023-09-12T07:34:45;95174.63;;;25.09;37.88
63097;BME280;49185;42.320;23.198;2023-09-12T07:37:10;95170.66;;;24.76;38.23
63097;BME280;49185;42.320;23.198;2023-09-12T07:39:36;95167.63;;;24.31;38.68
63097;BME280;49185;42.320;23.198;2023-09-12T07:42:01;95166.19;;;24.33;38.64
63097;BME280;49185;42.320;23.198;2023-09-12T07:44:28;95164.84;;;24.48;37.58
63097;BME280;49185;42.320;23.198;2023-09-12T07:46:53;95170.09;;;24.92;38.60
63097;BME280;49185;42.320;23.198;2023-09-12T07:49:19;95167.22;;;24.58;38.22
63097;BME280;49185;42.320;23.198;2023-09-12T07:51:44;95163.22;;;25.15;37.03
63097;BME280;49185;42.320;23.198;2023-09-12T07:54:09;95155.31;;;24.72;37.18
63097;BME280;49185;42.320;23.198;2023-09-12T07:56:35;95157.34;;;25.55;36.22
63097;BME280;49185;42.320;23.198;2023-09-12T07:59:00;95161.97;;;25.13;35.92
63097;BME280;49185;42.320;23.198;2023-09-12T08:01:26;95161.06;;;25.30;37.03
63097;BME280;49185;42.320;23.198;2023-09-12T08:03:51;95163.13;;;25.33;34.79
63097;BME280;49185;42.320;23.198;2023-09-12T08:06:17;95151.66;;;25.18;35.56
63097;BME280;49185;42.320;23.198;2023-09-12T08:08:42;95151.16;;;25.46;35.31
63097;BME280;49185;42.320;23.198;2023-09-12T08:11:07;95152.34;;;25.36;34.98
63097;BME280;49185;42.320;23.198;2023-09-12T08:13:33;95155.84;;;25.16;34.35
63097;BME280;49185;42.320;23.198;2023-09-12T08:15:59;95160.16;;;25.17;34.81
63097;BME280;49185;42.320;23.198;2023-09-12T08:18:29;95154.97;;;25.24;34.08
63097;BME280;49185;42.320;23.198;2023-09-12T08:20:55;95161.91;;;25.43;33.57
63097;BME280;49185;42.320;23.198;2023-09-12T08:23:20;95153.25;;;25.62;32.75
63097;BME280;49185;42.320;23.198;2023-09-12T08:25:46;95150.81;;;26.02;32.60
63097;BME280;49185;42.320;23.198;2023-09-12T08:28:11;95147.84;;;25.95;33.60
63097;BME280;49185;42.320;23.198;2023-09-12T08:30:37;95144.97;;;25.58;33.60
63097;BME280;49185;42.320;23.198;2023-09-12T08:33:02;95147.22;;;25.56;33.95
63097;BME280;49185;42.320;23.198;2023-09-12T08:35:28;95141.34;;;26.21;32.67
63097;BME280;49185;42.320;23.198;2023-09-12T08:37:54;95138.28;;;25.55;31.95
63097;BME280;49185;42.320;23.198;2023-09-12T08:40:19;95136.06;;;26.03;32.08
63097;BME280;49185;42.320;23.198;2023-09-12T08:42:45;95134.56;;;25.72;32.42
63097;BME280;49185;42.320;23.198;2023-09-12T08:45:18;95129.91;;;25.39;32.48
63097;BME280;49185;42.320;23.198;2023-09-12T08:47:45;95127.69;;;25.12;33.37
63097;BME280;49185;42.320;23.198;2023-09-12T08:50:15;95131.19;;;25.75;33.20
63097;BME280;49185;42.320;23.198;2023-09-12T08:52:41;95127.09;;;26.15;32.60
63097;BME280;49185;42.320;23.198;2023-09-12T08:55:08;95128.75;;;25.62;32.42
63097;BME280;49185;42.320;23.198;2023-09-12T08:57:36;95127.75;;;25.66;32.38
63097;BME280;49185;42.320;23.198;2023-09-12T09:00:04;95127.34;;;25.76;31.96
63097;BME280;49185;42.320;23.198;2023-09-12T09:02:30;95130.19;;;26.13;31.87
63097;BME280;49185;42.320;23.198;2023-09-12T09:04:56;95125.16;;;26.03;32.18
63097;BME280;49185;42.320;23.198;2023-09-12T09:07:22;95126.69;;;25.58;33.15
63097;BME280;49185;42.320;23.198;2023-09-12T09:09:49;95122.88;;;26.05;31.29
63097;BME280;49185;42.320;23.198;2023-09-12T09:12:14;95119.50;;;26.21;30.57
63097;BME280;49185;42.320;23.198;2023-09-12T09:14:40;95113.81;;;26.13;29.91
63097;BME280;49185;42.320;23.198;2023-09-12T09:17:05;95112.22;;;26.12;30.60
63097;BME280;49185;42.320;23.198;2023-09-12T09:19:41;95107.91;;;26.24;30.95
63097;BME280;49185;42.320;23.198;2023-09-12T09:22:06;95105.88;;;26.21;30.47
63097;BME280;49185;42.320;23.198;2023-09-12T09:24:31;95109.59;;;26.04;30.14
63097;BME280;49185;42.320;23.198;2023-09-12T09:26:57;95105.44;;;25.85;29.44
63097;BME280;49185;42.320;23.198;2023-09-12T09:29:22;95104.28;;;26.32;30.71
63097;BME280;49185;42.320;23.198;2023-09-12T09:31:49;95105.78;;;26.66;29.98
63097;BME280;49185;42.320;23.198;2023-09-12T09:34:19;95105.66;;;26.63;31.54
63097;BME280;49185;42.320;23.198;2023-09-12T09:36:51;95095.69;;;27.20;30.32
63097;BME280;49185;42.320;23.198;2023-09-12T09:39:18;95097.84;;;27.14;28.93
63097;BME280;49185;42.320;23.198;2023-09-12T09:41:51;95094.28;;;26.61;30.66
63097;BME280;49185;42.320;23.198;2023-09-12T09:44:17;95095.00;;;27.11;30.53
63097;BME280;49185;42.320;23.198;2023-09-12T09:46:44;95088.97;;;27.17;29.45
63097;BME280;49185;42.320;23.198;2023-09-12T09:49:11;95084.25;;;26.89;30.97
63097;BME280;49185;42.320;23.198;2023-09-12T09:51:43;95090.81;;;27.13;31.16
63097;BME280;49185;42.320;23.198;2023-09-12T09:54:11;95085.78;;;27.27;30.43
63097;BME280;49185;42.320;23.198;2023-09-12T09:59:16;95075.19;;;27.54;28.97
63097;BME280;49185;42.320;23.198;2023-09-12T10:01:45;95067.66;;;27.35;29.79
63097;BME280;49185;42.320;23.198;2023-09-12T10:04:10;95072.81;;;27.12;29.45
63097;BME280;49185;42.320;23.198;2023-09-12T10:06:37;95067.75;;;27.26;29.63
63097;BME280;49185;42.320;23.198;2023-09-12T10:09:09;95073.72;;;27.73;30.06
63097;BME280;49185;42.320;23.198;2023-09-12T10:11:34;95063.63;;;27.89;29.68
63097;BME280;49185;42.320;23.198;2023-09-12T10:14:03;95067.97;;;28.06;28.10
63097;BME280;49185;42.320;23.198;2023-09-12T10:16:34;95065.50;;;27.57;28.49
63097;BME280;49185;42.320;23.198;2023-09-12T10:19:21;95075.00;;;27.47;28.22
63097;BME280;49185;42.320;23.198;2023-09-12T10:22:12;95061.09;;;27.52;29.16
63097;BME280;49185;42.320;23.198;2023-09-12T10:24:43;95065.66;;;27.20;28.65
63097;BME280;49185;42.320;23.198;2023-09-12T10:27:11;95061.78;;;27.49;28.85
63097;BME280;49185;42.320;23.198;2023-09-12T10:29:37;95053.47;;;27.17;28.82
63097;BME280;49185;42.320;23.198;2023-09-12T10:32:03;95050.38;;;27.31;28.66
63097;BME280;49185;42.320;23.198;2023-09-12T10:34:32;95045.25;;;27.74;28.48
63097;BME280;49185;42.320;23.198;2023-09-12T10:36:58;95034.44;;;28.41;28.17
63097;BME280;49185;42.320;23.198;2023-09-12T10:39:26;95044.75;;;28.64;27.94
63097;BME280;49185;42.320;23.198;2023-09-12T10:41:53;95042.13;;;28.87;27.50
63097;BME280;49185;42.320;23.198;2023-09-12T10:44:20;95031.44;;;29.17;27.14
63097;BME280;49185;42.320;23.198;2023-09-12T10:46:46;95031.44;;;29.37;27.87
63097;BME280;49185;42.320;23.198;2023-09-12T10:49:14;95024.56;;;29.27;25.94
63097;BME280;49185;42.320;23.198;2023-09-12T10:51:41;95033.03;;;29.38;27.77
63097;BME280;49185;42.320;23.198;2023-09-12T10:54:07;95023.56;;;29.35;26.45
63097;BME280;49185;42.320;23.198;2023-09-12T10:56:33;95024.13;;;29.25;26.57
63097;BME280;49185;42.320;23.198;2023-09-12T11:01:27;95017.84;;;28.85;26.04
63097;BME280;49185;42.320;23.198;2023-09-12T11:03:52;95017.38;;;29.19;26.32
63097;BME280;49185;42.320;23.198;2023-09-12T11:06:23;95010.28;;;29.18;25.82
63097;BME280;49185;42.320;23.198;2023-09-12T11:11:44;95007.19;;;30.04;24.76
63097;BME280;49185;42.320;23.198;2023-09-12T11:14:10;94994.84;;;29.91;25.61
63097;BME280;49185;42.320;23.198;2023-09-12T11:16:36;95000.59;;;30.09;25.09
63097;BME280;49185;42.320;23.198;2023-09-12T11:19:18;94991.56;;;30.32;25.42
63097;BME280;49185;42.320;23.198;2023-09-12T11:21:50;94992.00;;;30.91;25.03
63097;BME280;49185;42.320;23.198;2023-09-12T11:24:17;94993.66;;;30.69;24.41
63097;BME280;49185;42.320;23.198;2023-09-12T11:27:00;94988.47;;;30.60;23.61
63097;BME280;49185;42.320;23.198;2023-09-12T11:29:38;94981.59;;;30.77;23.30
63097;BME280;49185;42.320;23.198;2023-09-12T11:32:05;94983.97;;;30.48;24.31
63097;BME280;49185;42.320;23.198;2023-09-12T11:34:41;94980.25;;;29.87;23.67
63097;BME280;49185;42.320;23.198;2023-09-12T11:37:08;94980.78;;;29.73;24.81
63097;BME280;49185;42.320;23.198;2023-09-12T11:39:35;94978.03;;;29.73;24.35
63097;BME280;49185;42.320;23.198;2023-09-12T11:42:02;94974.25;;;30.04;23.32
63097;BME280;49185;42.320;23.198;2023-09-12T11:44:29;94970.25;;;30.48;24.21
63097;BME280;49185;42.320;23.198;2023-09-12T11:46:55;94969.50;;;30.51;23.78
63097;BME280;49185;42.320;23.198;2023-09-12T11:49:22;94960.72;;;31.33;21.91
63097;BME280;49185;42.320;23.198;2023-09-12T11:51:53;94964.97;;;30.93;23.00
63097;BME280;49185;42.320;23.198;2023-09-12T11:54:25;94951.34;;;29.47;24.20
63097;BME280;49185;42.320;23.198;2023-09-12T11:56:51;94956.56;;;28.74;25.34
63097;BME280;49185;42.320;23.198;2023-09-12T11:59:17;94954.56;;;28.71;26.25
63097;BME280;49185;42.320;23.198;2023-09-12T12:01:42;94961.03;;;28.47;26.76
63097;BME280;49185;42.320;23.198;2023-09-12T12:04:08;94951.53;;;28.05;24.65
63097;BME280;49185;42.320;23.198;2023-09-12T12:06:34;94951.44;;;28.01;24.98
63097;BME280;49185;42.320;23.198;2023-09-12T12:09:00;94943.22;;;27.86;26.53
63097;BME280;49185;42.320;23.198;2023-09-12T12:11:28;94947.25;;;27.76;25.42
63097;BME280;49185;42.320;23.198;2023-09-12T12:13:54;94947.09;;;27.69;26.25
63097;BME280;49185;42.320;23.198;2023-09-12T12:16:19;94942.16;;;27.58;25.89
63097;BME280;49185;42.320;23.198;2023-09-12T12:18:45;94942.16;;;27.74;27.53
63097;BME280;49185;42.320;23.198;2023-09-12T12:21:10;94944.53;;;27.60;25.67
63097;BME280;49185;42.320;23.198;2023-09-12T12:23:36;94944.97;;;27.62;26.19
63097;BME280;49185;42.320;23.198;2023-09-12T12:26:08;94939.59;;;27.50;26.20
63097;BME280;49185;42.320;23.198;2023-09-12T12:28:37;94938.19;;;27.72;23.33
63097;BME280;49185;42.320;23.198;2023-09-12T12:31:03;94923.44;;;27.76;24.12
63097;BME280;49185;42.320;23.198;2023-09-12T12:33:30;94924.69;;;27.79;25.45
63097;BME280;49185;42.320;23.198;2023-09-12T12:36:03;94927.88;;;27.65;26.12
63097;BME280;49185;42.320;23.198;2023-09-12T12:38:37;94930.25;;;27.51;25.79
63097;BME280;49185;42.320;23.198;2023-09-12T12:41:02;94921.19;;;27.46;25.12
63097;BME280;49185;42.320;23.198;2023-09-12T12:43:28;94922.75;;;27.48;23.84
63097;BME280;49185;42.320;23.198;2023-09-12T12:45:54;94923.38;;;27.57;24.25
63097;BME280;49185;42.320;23.198;2023-09-12T12:48:36;94918.19;;;27.52;23.31
63097;BME280;49185;42.320;23.198;2023-09-12T12:51:18;94912.00;;;27.55;22.93
63097;BME280;49185;42.320;23.198;2023-09-12T12:53:47;94911.91;;;27.51;23.31
63097;BME280;49185;42.320;23.198;2023-09-12T12:56:14;94907.78;;;27.41;22.56
63097;BME280;49185;42.320;23.198;2023-09-12T12:58:46;94907.88;;;27.45;23.90
63097;BME280;49185;42.320;23.198;2023-09-12T13:01:11;94903.28;;;27.65;24.40
63097;BME280;49185;42.320;23.198;2023-09-12T13:03:36;94909.44;;;27.78;23.02